sensor_id;sensor_type;location;lat;lon;timestamp;pressure;altitude;pressure_sealevel;temperature;humidity
69247;BME280;56358;56.328;43.992;2023-02-20T00:01:05;99318.94;;;-14.16;70.31
69247;BME280;56358;56.328;43.992;2023-02-20T00:03:07;99331.00;;;-14.06;70.93
69247;BME280;56358;56.328;43.992;2023-02-20T00:05:07;99337.00;;;-14.10;70.75
69247;BME280;56358;56.328;43.992;2023-02-20T00:07:08;99312.13;;;-14.05;70.36
69247;BME280;56358;56.328;43.992;2023-02-20T00:09:09;99298.38;;;-14.07;70.54
69247;BME280;56358;56.328;43.992;2023-02-20T00:11:09;99324.16;;;-14.01;70.28
69247;BME280;56358;56.328;43.992;2023-02-20T00:13:10;99276.88;;;-14.21;70.30
69247;BME280;56358;56.328;43.992;2023-02-20T00:15:14;99313.00;;;-13.90;69.81
69247;BME280;56358;56.328;43.992;2023-02-20T00:17:14;99311.31;;;-13.87;69.85
69247;BME280;56358;56.328;43.992;2023-02-20T00:19:15;99307.03;;;-13.85;69.36
69247;BME280;56358;56.328;43.992;2023-02-20T00:21:16;99306.13;;;-13.94;69.16
69247;BME280;56358;56.328;43.992;2023-02-20T00:23:17;99297.50;;;-14.00;68.93
69247;BME280;56358;56.328;43.992;2023-02-20T00:25:19;99304.41;;;-14.03;68.81
69247;BME280;56358;56.328;43.992;2023-02-20T00:27:20;99266.53;;;-14.34;68.91
69247;BME280;56358;56.328;43.992;2023-02-20T00:29:22;99308.66;;;-14.04;69.02
69247;BME280;56358;56.328;43.992;2023-02-20T00:31:23;99320.66;;;-14.15;68.92
69247;BME280;56358;56.328;43.992;2023-02-20T00:33:24;99314.69;;;-14.00;69.05
69247;BME280;56358;56.328;43.992;2023-02-20T00:35:25;99306.94;;;-14.11;68.07
69247;BME280;56358;56.328;43.992;2023-02-20T00:37:26;99307.81;;;-14.03;68.39
69247;BME280;56358;56.328;43.992;2023-02-20T00:39:27;99301.81;;;-14.03;68.49
69247;BME280;56358;56.328;43.992;2023-02-20T00:41:28;99305.25;;;-14.03;68.25
69247;BME280;56358;56.328;43.992;2023-02-20T00:43:29;99304.41;;;-14.03;68.33
69247;BME280;56358;56.328;43.992;2023-02-20T00:45:30;99291.50;;;-14.08;68.60
69247;BME280;56358;56.328;43.992;2023-02-20T00:47:31;99306.97;;;-13.97;68.14
69247;BME280;56358;56.328;43.992;2023-02-20T00:49:32;99305.25;;;-14.03;68.05
69247;BME280;56358;56.328;43.992;2023-02-20T00:51:33;99295.78;;;-14.10;67.87
69247;BME280;56358;56.328;43.992;2023-02-20T00:53:35;99306.13;;;-13.99;67.85
69247;BME280;56358;56.328;43.992;2023-02-20T00:55:36;99306.97;;;-14.02;68.25
69247;BME280;56358;56.328;43.992;2023-02-20T00:57:36;99296.66;;;-14.03;68.12
69247;BME280;56358;56.328;43.992;2023-02-20T00:59:37;99268.28;;;-14.22;68.07
69247;BME280;56358;56.328;43.992;2023-02-20T01:01:37;99232.19;;;-14.45;67.85
69247;BME280;56358;56.328;43.992;2023-02-20T01:03:38;99267.41;;;-14.25;67.83
69247;BME280;56358;56.328;43.992;2023-02-20T01:05:39;99300.94;;;-14.04;68.17
69247;BME280;56358;56.328;43.992;2023-02-20T01:07:39;99266.56;;;-14.29;68.09
69247;BME280;56358;56.328;43.992;2023-02-20T01:09:40;99308.66;;;-14.14;68.08
69247;BME280;56358;56.328;43.992;2023-02-20T01:11:42;99301.78;;;-14.11;68.20
69247;BME280;56358;56.328;43.992;2023-02-20T01:13:43;99254.50;;;-14.36;68.00
69247;BME280;56358;56.328;43.992;2023-02-20T01:15:44;99305.25;;;-14.04;68.17
69247;BME280;56358;56.328;43.992;2023-02-20T01:17:45;99295.78;;;-14.11;68.26
69247;BME280;56358;56.328;43.992;2023-02-20T01:19:46;99305.22;;;-14.10;68.25
69247;BME280;56358;56.328;43.992;2023-02-20T01:21:47;99295.75;;;-14.18;67.97
69247;BME280;56358;56.328;43.992;2023-02-20T01:23:50;99289.78;;;-14.18;68.16
69247;BME280;56358;56.328;43.992;2023-02-20T01:25:51;99257.09;;;-14.35;67.90
69247;BME280;56358;56.328;43.992;2023-02-20T01:27:51;99301.75;;;-14.19;67.86
69247;BME280;56358;56.328;43.992;2023-02-20T01:29:52;99298.31;;;-14.25;67.80
69247;BME280;56358;56.328;43.992;2023-02-20T01:31:52;99292.31;;;-14.29;67.82
69247;BME280;56358;56.328;43.992;2023-02-20T01:33:53;99248.47;;;-14.47;68.16
69247;BME280;56358;56.328;43.992;2023-02-20T01:35:54;99300.91;;;-14.18;68.22
69247;BME280;56358;56.328;43.992;2023-02-20T01:37:54;99276.88;;;-14.17;67.94
69247;BME280;56358;56.328;43.992;2023-02-20T01:39:55;99276.00;;;-14.20;67.93
69247;BME280;56358;56.328;43.992;2023-02-20T01:42:05;99288.88;;;-14.20;67.70
69247;BME280;56358;56.328;43.992;2023-02-20T01:44:19;99258.84;;;-14.29;68.08
69247;BME280;56358;56.328;43.992;2023-02-20T01:48:27;99280.34;;;-14.10;67.84
69247;BME280;56358;56.328;43.992;2023-02-20T01:52:33;99279.50;;;-14.06;67.97
69247;BME280;56358;56.328;43.992;2023-02-20T01:54:38;99270.88;;;-14.11;67.43
69247;BME280;56358;56.328;43.992;2023-02-20T01:56:43;99264.03;;;-14.04;68.28
69247;BME280;56358;56.328;43.992;2023-02-20T01:58:48;99285.50;;;-13.99;68.32
69247;BME280;56358;56.328;43.992;2023-02-20T02:00:50;99277.78;;;-13.97;67.68
69247;BME280;56358;56.328;43.992;2023-02-20T02:02:55;99279.50;;;-13.98;67.49
69247;BME280;56358;56.328;43.992;2023-02-20T02:04:56;99258.88;;;-14.03;67.43
69247;BME280;56358;56.328;43.992;2023-02-20T02:06:57;99264.88;;;-14.07;67.22
69247;BME280;56358;56.328;43.992;2023-02-20T02:09:02;99275.19;;;-13.93;67.26
69247;BME280;56358;56.328;43.992;2023-02-20T02:11:08;99262.31;;;-13.94;67.21
69247;BME280;56358;56.328;43.992;2023-02-20T02:13:09;99269.22;;;-13.98;67.16
69247;BME280;56358;56.328;43.992;2023-02-20T02:15:14;99266.59;;;-14.03;67.35
69247;BME280;56358;56.328;43.992;2023-02-20T02:17:39;99269.19;;;-13.92;67.19
69247;BME280;56358;56.328;43.992;2023-02-20T02:34:12;99258.03;;;-13.92;68.77
69247;BME280;56358;56.328;43.992;2023-02-20T02:38:44;99256.31;;;-14.00;68.48
69247;BME280;56358;56.328;43.992;2023-02-20T02:40:56;99249.47;;;-14.02;68.50
69247;BME280;56358;56.328;43.992;2023-02-20T02:43:01;99252.03;;;-14.01;68.45
69247;BME280;56358;56.328;43.992;2023-02-20T02:45:40;99217.66;;;-14.15;68.93
69247;BME280;56358;56.328;43.992;2023-02-20T02:47:50;99252.03;;;-13.87;68.58
69247;BME280;56358;56.328;43.992;2023-02-20T02:50:07;99240.88;;;-13.89;68.21
69247;BME280;56358;56.328;43.992;2023-02-20T02:52:11;99241.72;;;-13.85;68.21
69247;BME280;56358;56.328;43.992;2023-02-20T02:54:34;99248.59;;;-13.84;68.28
69247;BME280;56358;56.328;43.992;2023-02-20T02:56:36;99195.34;;;-14.11;68.40
69247;BME280;56358;56.328;43.992;2023-02-20T02:58:37;99224.53;;;-13.97;68.05
69247;BME280;56358;56.328;43.992;2023-02-20T03:00:57;99252.06;;;-13.82;67.67
69247;BME280;56358;56.328;43.992;2023-02-20T03:03:20;99254.63;;;-13.80;68.06
69247;BME280;56358;56.328;43.992;2023-02-20T03:05:27;99239.16;;;-13.80;67.99
69247;BME280;56358;56.328;43.992;2023-02-20T03:07:40;99194.47;;;-14.12;67.78
69247;BME280;56358;56.328;43.992;2023-02-20T03:10:19;99234.84;;;-13.88;67.55
69247;BME280;56358;56.328;43.992;2023-02-20T03:12:17;99248.59;;;-13.81;67.86
69247;BME280;56358;56.328;43.992;2023-02-20T03:14:29;99246.03;;;-13.81;67.11
69247;BME280;56358;56.328;43.992;2023-02-20T03:17:14;99242.59;;;-13.91;67.13
69247;BME280;56358;56.328;43.992;2023-02-20T03:19:26;99234.88;;;-13.94;67.43
69247;BME280;56358;56.328;43.992;2023-02-20T03:21:29;99245.16;;;-13.91;67.90
69247;BME280;56358;56.328;43.992;2023-02-20T03:23:34;99191.91;;;-14.18;67.80
69247;BME280;56358;56.328;43.992;2023-02-20T03:25:40;99187.59;;;-14.16;68.30
69247;BME280;56358;56.328;43.992;2023-02-20T03:27:57;99240.03;;;-13.85;67.43
69247;BME280;56358;56.328;43.992;2023-02-20T03:29:59;99236.56;;;-13.87;67.62
69247;BME280;56358;56.328;43.992;2023-02-20T03:32:06;99192.75;;;-14.18;67.63
69247;BME280;56358;56.328;43.992;2023-02-20T03:34:27;99224.53;;;-14.00;67.33
69247;BME280;56358;56.328;43.992;2023-02-20T03:36:52;99216.81;;;-13.97;67.81
69247;BME280;56358;56.328;43.992;2023-02-20T03:39:17;99232.28;;;-13.88;67.43
69247;BME280;56358;56.328;43.992;2023-02-20T03:41:39;99226.25;;;-13.96;67.54
69247;BME280;56358;56.328;43.992;2023-02-20T03:44:03;99176.44;;;-14.20;67.78
69247;BME280;56358;56.328;43.992;2023-02-20T03:46:10;99215.97;;;-14.01;67.42
69247;BME280;56358;56.328;43.992;2023-02-20T03:48:19;99225.41;;;-13.95;67.26
69247;BME280;56358;56.328;43.992;2023-02-20T03:50:21;99184.16;;;-14.20;67.89
69247;BME280;56358;56.328;43.992;2023-02-20T03:52:22;99213.38;;;-13.94;68.21
69247;BME280;56358;56.328;43.992;2023-02-20T03:54:24;99218.53;;;-13.85;67.70
69247;BME280;56358;56.328;43.992;2023-02-20T03:56:30;99222.00;;;-13.83;67.78
69247;BME280;56358;56.328;43.992;2023-02-20T03:58:33;99218.53;;;-13.85;67.72
69247;BME280;56358;56.328;43.992;2023-02-20T04:00:44;99218.56;;;-13.90;67.33
69247;BME280;56358;56.328;43.992;2023-02-20T04:02:48;99223.69;;;-13.85;67.22
69247;BME280;56358;56.328;43.992;2023-02-20T04:04:52;99219.41;;;-13.83;67.47
69247;BME280;56358;56.328;43.992;2023-02-20T04:06:55;99221.97;;;-13.88;67.63
69247;BME280;56358;56.328;43.992;2023-02-20T04:09:04;99214.25;;;-13.80;68.13
69247;BME280;56358;56.328;43.992;2023-02-20T04:11:27;99171.31;;;-14.04;67.38
69247;BME280;56358;56.328;43.992;2023-02-20T04:13:31;99226.28;;;-13.76;67.39
69247;BME280;56358;56.328;43.992;2023-02-20T04:15:33;99219.41;;;-13.75;67.66
69247;BME280;56358;56.328;43.992;2023-02-20T04:17:41;99218.53;;;-13.88;67.14
69247;BME280;56358;56.328;43.992;2023-02-20T04:19:44;99203.06;;;-13.97;67.04
69247;BME280;56358;56.328;43.992;2023-02-20T04:21:54;99160.13;;;-14.25;67.35
69247;BME280;56358;56.328;43.992;2023-02-20T04:24:08;99231.41;;;-13.87;67.60
69247;BME280;56358;56.328;43.992;2023-02-20T04:26:16;99192.75;;;-14.05;67.24
69247;BME280;56358;56.328;43.992;2023-02-20T04:28:19;99209.94;;;-13.95;67.46
69247;BME280;56358;56.328;43.992;2023-02-20T04:30:21;99208.22;;;-13.96;67.26
69247;BME280;56358;56.328;43.992;2023-02-20T04:32:22;99198.78;;;-14.02;67.77
69247;BME280;56358;56.328;43.992;2023-02-20T04:34:23;99198.78;;;-13.94;67.84
69247;BME280;56358;56.328;43.992;2023-02-20T04:36:24;99207.38;;;-13.86;68.00
69247;BME280;56358;56.328;43.992;2023-02-20T04:38:25;99208.25;;;-13.80;68.03
69247;BME280;56358;56.328;43.992;2023-02-20T04:40:26;99204.78;;;-13.83;67.25
69247;BME280;56358;56.328;43.992;2023-02-20T04:42:26;99191.94;;;-13.87;66.98
69247;BME280;56358;56.328;43.992;2023-02-20T04:44:27;99192.78;;;-13.90;67.39
69247;BME280;56358;56.328;43.992;2023-02-20T04:46:31;99189.34;;;-13.86;67.32
69247;BME280;56358;56.328;43.992;2023-02-20T04:48:31;99191.06;;;-13.80;66.87
69247;BME280;56358;56.328;43.992;2023-02-20T04:50:33;99185.03;;;-13.77;67.68
69247;BME280;56358;56.328;43.992;2023-02-20T04:52:34;99143.84;;;-14.08;67.16
69247;BME280;56358;56.328;43.992;2023-02-20T04:54:34;99194.50;;;-13.73;67.39
69247;BME280;56358;56.328;43.992;2023-02-20T04:56:35;99182.47;;;-13.74;67.37
69247;BME280;56358;56.328;43.992;2023-02-20T04:58:35;99199.63;;;-13.61;67.02
69247;BME280;56358;56.328;43.992;2023-02-20T05:00:36;99190.19;;;-13.68;66.91
69247;BME280;56358;56.328;43.992;2023-02-20T05:02:38;99195.34;;;-13.57;66.93
69247;BME280;56358;56.328;43.992;2023-02-20T05:04:38;99185.91;;;-13.55;66.70
69247;BME280;56358;56.328;43.992;2023-02-20T05:06:50;99200.50;;;-13.56;66.60
69247;BME280;56358;56.328;43.992;2023-02-20T05:08:51;99184.16;;;-13.61;66.62
69247;BME280;56358;56.328;43.992;2023-02-20T05:10:52;99172.16;;;-13.84;66.79
69247;BME280;56358;56.328;43.992;2023-02-20T05:12:52;99189.31;;;-13.70;67.04
69247;BME280;56358;56.328;43.992;2023-02-20T05:14:53;99203.09;;;-13.62;68.23
69247;BME280;56358;56.328;43.992;2023-02-20T05:16:54;99124.06;;;-13.97;67.75
69247;BME280;56358;56.328;43.992;2023-02-20T05:18:55;99188.47;;;-13.52;67.70
69247;BME280;56358;56.328;43.992;2023-02-20T05:20:56;99191.00;;;-13.46;68.05
69247;BME280;56358;56.328;43.992;2023-02-20T05:23:15;99190.16;;;-13.46;67.58
69247;BME280;56358;56.328;43.992;2023-02-20T05:25:16;99161.00;;;-13.78;66.52
69247;BME280;56358;56.328;43.992;2023-02-20T05:27:20;99187.63;;;-13.62;67.68
69247;BME280;56358;56.328;43.992;2023-02-20T05:29:21;99178.16;;;-13.60;68.25
69247;BME280;56358;56.328;43.992;2023-02-20T05:31:21;99181.59;;;-13.56;67.86
69247;BME280;56358;56.328;43.992;2023-02-20T05:33:22;99064.84;;;-14.31;67.48
69247;BME280;56358;56.328;43.992;2023-02-20T05:35:23;99147.25;;;-13.78;67.47
69247;BME280;56358;56.328;43.992;2023-02-20T05:37:25;99169.56;;;-13.68;66.88
69247;BME280;56358;56.328;43.992;2023-02-20T05:39:26;99185.03;;;-13.68;67.60
69247;BME280;56358;56.328;43.992;2023-02-20T05:41:27;99179.03;;;-13.67;67.37
69247;BME280;56358;56.328;43.992;2023-02-20T05:43:28;99182.47;;;-13.70;67.03
69247;BME280;56358;56.328;43.992;2023-02-20T05:45:28;99118.06;;;-14.19;67.24
69247;BME280;56358;56.328;43.992;2023-02-20T05:47:29;99183.31;;;-13.69;68.03
69247;BME280;56358;56.328;43.992;2023-02-20T05:49:30;99181.59;;;-13.79;66.85
69247;BME280;56358;56.328;43.992;2023-02-20T05:51:31;99161.00;;;-13.83;67.92
69247;BME280;56358;56.328;43.992;2023-02-20T05:53:32;99184.19;;;-13.67;68.31
69247;BME280;56358;56.328;43.992;2023-02-20T05:55:33;99187.59;;;-13.54;68.55
69247;BME280;56358;56.328;43.992;2023-02-20T05:57:33;99180.69;;;-13.46;68.00
69247;BME280;56358;56.328;43.992;2023-02-20T05:59:34;99156.69;;;-13.65;67.17
69247;BME280;56358;56.328;43.992;2023-02-20T06:01:35;99191.00;;;-13.38;66.97
69247;BME280;56358;56.328;43.992;2023-02-20T06:03:35;99179.88;;;-13.48;66.35
69247;BME280;56358;56.328;43.992;2023-02-20T06:05:36;99154.94;;;-13.66;66.36
69247;BME280;56358;56.328;43.992;2023-02-20T06:07:37;99173.81;;;-13.39;66.84
69247;BME280;56358;56.328;43.992;2023-02-20T06:09:41;99172.97;;;-13.38;66.85
69247;BME280;56358;56.328;43.992;2023-02-20T06:11:50;99175.50;;;-13.31;65.98
69247;BME280;56358;56.328;43.992;2023-02-20T06:13:51;99176.34;;;-13.24;65.97
69247;BME280;56358;56.328;43.992;2023-02-20T06:15:52;99172.88;;;-13.20;65.83
69247;BME280;56358;56.328;43.992;2023-02-20T06:17:53;99176.31;;;-13.13;65.42
69247;BME280;56358;56.328;43.992;2023-02-20T06:19:53;99181.50;;;-13.18;65.78
69247;BME280;56358;56.328;43.992;2023-02-20T06:21:54;99166.88;;;-13.25;64.88
69247;BME280;56358;56.328;43.992;2023-02-20T06:23:57;99181.50;;;-13.22;65.25
69247;BME280;56358;56.328;43.992;2023-02-20T06:25:58;99179.75;;;-13.23;64.89
69247;BME280;56358;56.328;43.992;2023-02-20T06:27:59;99175.47;;;-13.20;65.34
69247;BME280;56358;56.328;43.992;2023-02-20T06:29:59;99172.06;;;-13.29;65.37
69247;BME280;56358;56.328;43.992;2023-02-20T06:32:00;99166.00;;;-13.15;65.53
69247;BME280;56358;56.328;43.992;2023-02-20T06:34:01;99172.88;;;-13.10;65.22
69247;BME280;56358;56.328;43.992;2023-02-20T06:36:03;99169.41;;;-13.06;65.09
69247;BME280;56358;56.328;43.992;2023-02-20T06:38:04;99168.56;;;-13.13;64.33
69247;BME280;56358;56.328;43.992;2023-02-20T06:40:05;99166.03;;;-13.19;64.37
69247;BME280;56358;56.328;43.992;2023-02-20T06:42:06;99158.31;;;-13.28;64.44
69247;BME280;56358;56.328;43.992;2023-02-20T06:44:06;99166.00;;;-13.21;64.77
69247;BME280;56358;56.328;43.992;2023-02-20T06:46:07;99166.88;;;-13.12;65.85
69247;BME280;56358;56.328;43.992;2023-02-20T06:48:08;99152.25;;;-13.15;64.98
69247;BME280;56358;56.328;43.992;2023-02-20T06:50:09;99165.16;;;-13.26;63.83
69247;BME280;56358;56.328;43.992;2023-02-20T06:52:10;99157.38;;;-13.17;64.63
69247;BME280;56358;56.328;43.992;2023-02-20T06:54:11;99166.81;;;-13.03;65.22
69247;BME280;56358;56.328;43.992;2023-02-20T06:56:18;99158.19;;;-12.94;64.87
69247;BME280;56358;56.328;43.992;2023-02-20T06:58:19;99114.44;;;-13.19;64.67
69247;BME280;56358;56.328;43.992;2023-02-20T07:00:20;99162.44;;;-12.84;64.68
69247;BME280;56358;56.328;43.992;2023-02-20T07:02:21;99169.28;;;-12.77;64.10
69247;BME280;56358;56.328;43.992;2023-02-20T07:04:24;99113.50;;;-13.07;64.14
69247;BME280;56358;56.328;43.992;2023-02-20T07:06:25;99158.03;;;-12.64;64.37
69247;BME280;56358;56.328;43.992;2023-02-20T07:08:26;99118.63;;;-12.97;64.12
69247;BME280;56358;56.328;43.992;2023-02-20T07:10:27;99167.53;;;-12.70;64.32
69247;BME280;56358;56.328;43.992;2023-02-20T07:12:29;99162.38;;;-12.72;63.75
69247;BME280;56358;56.328;43.992;2023-02-20T07:14:30;99147.81;;;-12.82;63.60
69247;BME280;56358;56.328;43.992;2023-02-20T07:16:31;99146.09;;;-12.86;63.65
69247;BME280;56358;56.328;43.992;2023-02-20T07:18:31;99140.88;;;-12.74;64.16
69247;BME280;56358;56.328;43.992;2023-02-20T07:20:32;99145.16;;;-12.70;63.85
69247;BME280;56358;56.328;43.992;2023-02-20T07:22:33;99145.16;;;-12.71;64.34
69247;BME280;56358;56.328;43.992;2023-02-20T07:24:33;99141.75;;;-12.76;63.74
69247;BME280;56358;56.328;43.992;2023-02-20T07:26:36;99138.31;;;-12.71;63.21
69247;BME280;56358;56.328;43.992;2023-02-20T07:28:38;99136.63;;;-12.81;63.23
69247;BME280;56358;56.328;43.992;2023-02-20T07:30:39;99139.16;;;-12.72;63.65
69247;BME280;56358;56.328;43.992;2023-02-20T07:32:40;99137.47;;;-12.76;63.52
69247;BME280;56358;56.328;43.992;2023-02-20T07:34:40;99121.13;;;-12.79;62.81
69247;BME280;56358;56.328;43.992;2023-02-20T07:36:41;99135.75;;;-12.78;62.77
69247;BME280;56358;56.328;43.992;2023-02-20T07:38:42;99128.03;;;-12.82;62.91
69247;BME280;56358;56.328;43.992;2023-02-20T07:40:43;99129.75;;;-12.79;62.90
69247;BME280;56358;56.328;43.992;2023-02-20T07:42:44;99134.06;;;-12.83;62.79
69247;BME280;56358;56.328;43.992;2023-02-20T07:44:44;99082.50;;;-12.97;62.39
69247;BME280;56358;56.328;43.992;2023-02-20T07:46:48;99075.66;;;-13.04;62.51
69247;BME280;56358;56.328;43.992;2023-02-20T07:48:49;99120.25;;;-12.72;62.37
69247;BME280;56358;56.328;43.992;2023-02-20T07:50:50;99130.50;;;-12.61;62.61
69247;BME280;56358;56.328;43.992;2023-02-20T07:52:52;99125.44;;;-12.83;62.12
69247;BME280;56358;56.328;43.992;2023-02-20T07:54:52;99126.25;;;-12.70;62.95
69247;BME280;56358;56.328;43.992;2023-02-20T07:56:54;99135.66;;;-12.63;62.71
69247;BME280;56358;56.328;43.992;2023-02-20T07:58:55;99133.91;;;-12.59;62.21
69247;BME280;56358;56.328;43.992;2023-02-20T08:00:56;99138.13;;;-12.43;63.21
69247;BME280;56358;56.328;43.992;2023-02-20T08:02:57;99123.56;;;-12.56;62.79
69247;BME280;56358;56.328;43.992;2023-02-20T08:04:58;99129.59;;;-12.56;62.34
69247;BME280;56358;56.328;43.992;2023-02-20T08:06:59;99117.47;;;-12.44;63.76
69247;BME280;56358;56.328;43.992;2023-02-20T08:09:00;99105.41;;;-12.42;63.21
69247;BME280;56358;56.328;43.992;2023-02-20T08:11:01;99113.94;;;-12.33;62.19
69247;BME280;56358;56.328;43.992;2023-02-20T08:13:02;99111.34;;;-12.28;63.11
69247;BME280;56358;56.328;43.992;2023-02-20T08:15:03;99075.28;;;-12.43;63.14
69247;BME280;56358;56.328;43.992;2023-02-20T08:17:05;99101.91;;;-12.34;62.92
69247;BME280;56358;56.328;43.992;2023-02-20T08:19:05;99103.56;;;-12.23;63.92
69247;BME280;56358;56.328;43.992;2023-02-20T08:21:06;99109.47;;;-12.09;63.80
69247;BME280;56358;56.328;43.992;2023-02-20T08:23:16;99103.41;;;-12.05;63.03
69247;BME280;56358;56.328;43.992;2023-02-20T08:25:18;99080.38;;;-12.34;62.55
69247;BME280;56358;56.328;43.992;2023-02-20T08:27:19;99102.56;;;-12.08;63.29
69247;BME280;56358;56.328;43.992;2023-02-20T08:29:19;99083.66;;;-12.15;63.63
69247;BME280;56358;56.328;43.992;2023-02-20T08:31:20;99089.63;;;-12.05;63.76
69247;BME280;56358;56.328;43.992;2023-02-20T08:33:21;99093.09;;;-12.09;63.25
69247;BME280;56358;56.328;43.992;2023-02-20T08:35:22;99099.09;;;-12.06;63.99
69247;BME280;56358;56.328;43.992;2023-02-20T08:37:24;99087.88;;;-12.03;64.26
69247;BME280;56358;56.328;43.992;2023-02-20T08:39:24;99087.72;;;-11.88;64.10
69247;BME280;56358;56.328;43.992;2023-02-20T08:41:26;99092.16;;;-12.01;63.41
69247;BME280;56358;56.328;43.992;2023-02-20T08:43:27;99069.81;;;-12.05;63.80
69247;BME280;56358;56.328;43.992;2023-02-20T08:45:27;99088.69;;;-11.97;63.62
69247;BME280;56358;56.328;43.992;2023-02-20T08:47:28;99078.44;;;-12.07;63.50
69247;BME280;56358;56.328;43.992;2023-02-20T08:49:29;99083.50;;;-11.95;63.73
69247;BME280;56358;56.328;43.992;2023-02-20T08:51:29;99079.09;;;-11.88;63.82
69247;BME280;56358;56.328;43.992;2023-02-20T08:53:30;99066.16;;;-11.88;63.51
69247;BME280;56358;56.328;43.992;2023-02-20T08:55:31;99074.78;;;-11.86;63.87
69247;BME280;56358;56.328;43.992;2023-02-20T08:57:31;99072.97;;;-11.78;63.81
69247;BME280;56358;56.328;43.992;2023-02-20T08:59:32;99015.47;;;-11.97;63.83
69247;BME280;56358;56.328;43.992;2023-02-20T09:01:33;99066.00;;;-11.71;63.74
69247;BME280;56358;56.328;43.992;2023-02-20T09:03:34;98970.97;;;-12.24;63.63
69247;BME280;56358;56.328;43.992;2023-02-20T09:05:37;99064.28;;;-11.71;63.63
69247;BME280;56358;56.328;43.992;2023-02-20T09:07:38;99011.16;;;-11.98;63.97
69247;BME280;56358;56.328;43.992;2023-02-20T09:09:39;99068.53;;;-11.64;63.91
69247;BME280;56358;56.328;43.992;2023-02-20T09:11:39;99047.09;;;-11.76;63.32
69247;BME280;56358;56.328;43.992;2023-02-20T09:13:45;99065.91;;;-11.62;62.90
69247;BME280;56358;56.328;43.992;2023-02-20T09:15:45;99065.03;;;-11.59;62.44
69247;BME280;56358;56.328;43.992;2023-02-20T09:17:50;99061.50;;;-11.52;62.36
69247;BME280;56358;56.328;43.992;2023-02-20T09:19:51;99031.56;;;-11.72;61.99
69247;BME280;56358;56.328;43.992;2023-02-20T09:21:51;99059.66;;;-11.41;61.72
69247;BME280;56358;56.328;43.992;2023-02-20T09:23:52;99063.81;;;-11.29;62.14
69247;BME280;56358;56.328;43.992;2023-02-20T09:25:53;99063.78;;;-11.26;61.45
69247;BME280;56358;56.328;43.992;2023-02-20T09:27:54;99062.06;;;-11.27;61.29
69247;BME280;56358;56.328;43.992;2023-02-20T09:29:55;99057.66;;;-11.19;61.75
69247;BME280;56358;56.328;43.992;2023-02-20T09:31:56;99050.97;;;-11.35;61.01
69247;BME280;56358;56.328;43.992;2023-02-20T09:33:58;99054.47;;;-11.41;61.53
69247;BME280;56358;56.328;43.992;2023-02-20T09:36:00;99056.19;;;-11.38;61.97
69247;BME280;56358;56.328;43.992;2023-02-20T09:38:01;99050.81;;;-11.24;62.98
69247;BME280;56358;56.328;43.992;2023-02-20T09:40:03;99048.09;;;-11.14;61.96
69247;BME280;56358;56.328;43.992;2023-02-20T09:42:35;99051.66;;;-11.22;62.29
69247;BME280;56358;56.328;43.992;2023-02-20T09:46:55;99038.56;;;-11.10;62.59
69247;BME280;56358;56.328;43.992;2023-02-20T09:49:24;99033.44;;;-11.15;62.02
69247;BME280;56358;56.328;43.992;2023-02-20T09:51:31;99028.25;;;-11.12;62.36
69247;BME280;56358;56.328;43.992;2023-02-20T09:53:57;99012.06;;;-11.31;62.03
69247;BME280;56358;56.328;43.992;2023-02-20T09:56:02;99028.78;;;-10.89;62.24
69247;BME280;56358;56.328;43.992;2023-02-20T09:58:05;99033.03;;;-10.85;61.54
69247;BME280;56358;56.328;43.992;2023-02-20T10:00:10;99011.78;;;-11.09;61.28
69247;BME280;56358;56.328;43.992;2023-02-20T10:02:43;99029.41;;;-10.72;62.31
69247;BME280;56358;56.328;43.992;2023-02-20T10:04:52;99043.97;;;-10.66;61.44
69247;BME280;56358;56.328;43.992;2023-02-20T10:06:59;99032.75;;;-10.65;61.05
69247;BME280;56358;56.328;43.992;2023-02-20T10:09:05;99020.75;;;-10.71;60.46
69247;BME280;56358;56.328;43.992;2023-02-20T10:11:18;99008.84;;;-10.83;61.07
69247;BME280;56358;56.328;43.992;2023-02-20T10:15:37;99003.88;;;-10.97;61.17
69247;BME280;56358;56.328;43.992;2023-02-20T10:22:32;99008.78;;;-10.80;61.24
69247;BME280;56358;56.328;43.992;2023-02-20T10:25:27;99004.56;;;-10.85;61.33
69247;BME280;56358;56.328;43.992;2023-02-20T10:29:46;99001.94;;;-10.81;61.68
69247;BME280;56358;56.328;43.992;2023-02-20T10:31:57;98992.50;;;-10.85;62.10
69247;BME280;56358;56.328;43.992;2023-02-20T10:34:13;99000.34;;;-10.91;61.77
69247;BME280;56358;56.328;43.992;2023-02-20T10:38:44;98984.19;;;-11.08;62.47
69247;BME280;56358;56.328;43.992;2023-02-20T10:40:50;98985.03;;;-11.05;62.52
69247;BME280;56358;56.328;43.992;2023-02-20T10:45:21;98991.09;;;-11.07;62.66
69247;BME280;56358;56.328;43.992;2023-02-20T10:49:56;98990.00;;;-10.92;63.09
69247;BME280;56358;56.328;43.992;2023-02-20T10:51:59;98998.59;;;-10.90;62.80
69247;BME280;56358;56.328;43.992;2023-02-20T10:54:12;98989.91;;;-10.85;62.94
69247;BME280;56358;56.328;43.992;2023-02-20T10:56:35;98939.31;;;-11.07;63.07
69247;BME280;56358;56.328;43.992;2023-02-20T11:00:48;98932.69;;;-11.27;62.14
69247;BME280;56358;56.328;43.992;2023-02-20T11:02:57;98997.06;;;-11.04;62.87
69247;BME280;56358;56.328;43.992;2023-02-20T11:05:05;98987.66;;;-11.09;63.62
69247;BME280;56358;56.328;43.992;2023-02-20T11:07:12;98974.69;;;-11.08;64.17
69247;BME280;56358;56.328;43.992;2023-02-20T11:09:13;98988.31;;;-10.95;63.33
69247;BME280;56358;56.328;43.992;2023-02-20T11:13:22;98958.38;;;-11.15;62.50
69247;BME280;56358;56.328;43.992;2023-02-20T11:15:25;98970.50;;;-11.17;62.59
69247;BME280;56358;56.328;43.992;2023-02-20T11:17:28;99001.38;;;-11.04;63.00
69247;BME280;56358;56.328;43.992;2023-02-20T11:19:39;98972.06;;;-11.06;63.44
69247;BME280;56358;56.328;43.992;2023-02-20T11:21:44;98971.31;;;-11.12;62.99
69247;BME280;56358;56.328;43.992;2023-02-20T11:23:45;98981.72;;;-11.16;63.08
69247;BME280;56358;56.328;43.992;2023-02-20T11:25:46;98983.34;;;-11.10;64.00